Aérodrome :
LOGIN :

S'inscrire | Disclaimer

   EN    FR    IT 

 










Légende :    VFR   VFR Marginal   IFR   IFR Intensif   IFR Très Intensif
Visi : 
Plafond : 
>= 8 km
>= 3000ft
5 à 8 km
1000 à 3000 ft
1500m à 5 km
500 à 1000 ft
800 à 1500m
200 à 500 ft
< 800m
< 200 ft
Symboles :   Orages  Brouillard  Fortes neiges  Fortes précipitations  Vent > 20 kt
SIGMETs :   Divers  Orages  Givrage  Turbulence  Onde Orograph.  Cendres Volcan.







- Altitude de l'aérodrome : 1830 ft


EBLB - Butgenbach Elsenborn

DERNIER METAR :
  • 281725Z AUTO 27003KT 9999 SCT051/// BKN091/// 13/04 Q1023 BLU

METARs EXPIRÉS :
  • 281655Z AUTO 28004KT 9999 SCT052/// BKN084/// 14/04 Q1022 BLU
  • 281625Z AUTO 27006KT 9999 FEW085/// SCT095/// 14/04 Q1022 BLU
  • 281555Z AUTO 25009KT 9999 FEW052/// 16/03 Q1022 BLU
  • 281525Z AUTO 25009KT 9999 SCT055/// SCT080/// 15/03 Q1022 BLU
  • 281455Z 27008KT 9999 FEW050 15/03 Q1022 BLU BLU

Prévision TAF périmée.
Pas de NOTAMs connus pour ce terrain.



MET'MAP, la Météo Aéronautique d'un coup d'oeil ! - Copyright ORBIFLY Décembre 2007 - Disclaimer

ORBIFLY MET'MAP TEAM :

Programmation & Développement : Alexandra Zaïnal
Conception & Développement : Baudouin d'Aumeries
Co-Programmation & Développement : Marc-Olivier Méhu
Soutien technique & logistique : Manuel Goepfert

Contact : metmap@orbifly.com




SOURCES & CREDITS :

   NOAA